Time,TemperatureF,DewpointF,PressureIn,WindDirection,WindDirectionDegrees,WindSpeedMPH,WindSpeedGustMPH,Humidity,HourlyPrecipIn,Conditions,Clouds,dailyrainin,SoftwareType,DateUTC
2013-02-05 00:00:00,27.9,26.4,29.90,West,262,0.0,0.0,94,0.00,,,0.00,Wunderground v.1.15,2013-02-05 05:00:00,
2013-02-05 00:05:00,27.9,26.4,29.90,West,262,0.0,0.0,94,0.00,,,0.00,Wunderground v.1.15,2013-02-05 05:05:00,
2013-02-05 00:15:00,27.6,25.8,29.90,West,262,0.0,0.0,93,0.00,,,0.00,Wunderground v.1.15,2013-02-05 05:15:00,
2013-02-05 00:25:00,27.5,26.0,29.90,West,261,0.0,0.0,94,0.00,,,0.00,Wunderground v.1.15,2013-02-05 05:25:00,
2013-02-05 00:30:00,27.4,25.9,29.90,West,262,0.0,0.0,94,0.00,,,0.00,Wunderground v.1.15,2013-02-05 05:30:00,
2013-02-05 00:40:00,27.5,26.0,29.90,West,262,0.0,0.0,94,0.00,,,0.00,Wunderground v.1.15,2013-02-05 05:40:00,
2013-02-05 00:45:00,27.5,26.0,29.90,West,261,0.0,0.0,94,0.00,,,0.00,Wunderground v.1.15,2013-02-05 05:45:00,
2013-02-05 00:55:00,27.6,26.1,29.90,West,261,0.0,0.0,94,0.00,,,0.00,Wunderground v.1.15,2013-02-05 05:55:00,
2013-02-05 01:00:00,27.7,26.2,29.89,West,262,0.0,0.0,94,0.00,,,0.00,Wunderground v.1.15,2013-02-05 06:00:00,
2013-02-05 07:52:00,29.2,27.7,29.94,North,0,0.0,-999.0,94,0.00,,,0.02,Wunderground v.1.15,2013-02-05 12:52:00,
2013-02-05 07:57:00,29.2,27.7,29.94,North,0,0.0,-999.0,94,0.00,,,0.02,Wunderground v.1.15,2013-02-05 12:57:00,
2013-02-05 08:00:00,29.2,27.7,29.94,NE,36,0.0,0.0,94,0.00,,,0.00,Wunderground v.1.15,2013-02-05 13:00:00,
2013-02-05 08:02:00,29.2,27.7,29.94,North,0,0.0,-999.0,94,0.00,,,0.02,Wunderground v.1.15,2013-02-05 13:02:00,
2013-02-05 08:07:00,29.2,27.7,29.94,North,0,0.0,-999.0,94,0.00,,,0.02,Wunderground v.1.15,2013-02-05 13:07:00,
2013-02-05 08:10:00,29.2,27.7,29.94,ENE,75,0.0,0.0,94,0.00,,,0.00,Wunderground v.1.15,2013-02-05 13:10:00,
2013-02-05 08:12:00,29.2,27.7,29.94,North,0,0.0,-999.0,94,0.00,,,0.02,Wunderground v.1.15,2013-02-05 13:12:00,
2013-02-05 08:15:00,29.2,27.7,29.94,ENE,75,0.0,0.0,94,0.00,,,0.00,Wunderground v.1.15,2013-02-05 13:15:00,
2013-02-05 08:17:00,29.3,27.5,29.94,ENE,68,0.0,-999.0,93,0.00,,,0.02,Wunderground v.1.15,2013-02-05 13:17:00,
2013-02-05 08:22:00,29.3,27.5,29.94,ENE,68,0.0,-999.0,93,0.00,,,0.02,Wunderground v.1.15,2013-02-05 13:22:00,
2013-02-05 08:25:00,29.3,27.5,29.94,NE,46,0.0,0.0,93,0.00,,,0.00,Wunderground v.1.15,2013-02-05 13:25:00,
2013-02-05 08:27:00,29.3,27.5,29.94,ENE,68,0.0,-999.0,93,0.00,,,0.02,Wunderground v.1.15,2013-02-05 13:27:00,
2013-02-05 08:30:00,29.3,27.5,29.94,NE,47,0.0,0.0,93,0.00,,,0.00,Wunderground v.1.15,2013-02-05 13:30:00,
2013-02-05 08:32:00,29.3,27.5,29.94,ENE,68,0.0,-999.0,93,0.00,,,0.02,Wunderground v.1.15,2013-02-05 13:32:00,
2013-02-05 08:37:00,29.3,27.5,29.94,ENE,68,0.0,-999.0,93,0.00,,,0.02,Wunderground v.1.15,2013-02-05 13:37:00,
2013-02-05 08:40:00,29.5,27.7,29.94,NE,46,0.0,0.0,93,0.00,,,0.00,Wunderground v.1.15,2013-02-05 13:40:00,
2013-02-05 08:42:00,29.3,27.5,29.94,ENE,68,0.0,-999.0,93,0.00,,,0.02,Wunderground v.1.15,2013-02-05 13:42:00,
2013-02-05 08:47:00,29.7,27.9,29.95,NE,45,0.0,-999.0,93,0.00,,,0.02,Wunderground v.1.15,2013-02-05 13:47:00,
2013-02-05 08:50:00,29.5,27.7,29.94,NE,46,0.0,0.0,93,0.00,,,0.00,Wunderground v.1.15,2013-02-05 13:50:00,
2013-02-05 08:52:00,29.7,27.9,29.95,NE,45,0.0,-999.0,93,0.00,,,0.02,Wunderground v.1.15,2013-02-05 13:52:00,
2013-02-05 08:55:00,29.6,27.8,29.95,NE,46,0.0,0.0,93,0.00,,,0.00,Wunderground v.1.15,2013-02-05 13:55:00,
2013-02-05 08:57:00,29.7,27.9,29.95,NE,45,0.0,-999.0,93,0.00,,,0.02,Wunderground v.1.15,2013-02-05 13:57:00,
2013-02-05 09:02:00,29.7,27.9,29.95,NE,45,0.0,-999.0,93,0.00,,,0.02,Wunderground v.1.15,2013-02-05 14:02:00,
2013-02-05 09:05:00,29.7,27.9,29.94,NE,46,0.0,0.0,93,0.00,,,0.00,Wunderground v.1.15,2013-02-05 14:05:00,
2013-02-05 09:07:00,29.7,27.9,29.95,NE,45,0.0,-999.0,93,0.00,,,0.02,Wunderground v.1.15,2013-02-05 14:07:00,
2013-02-05 09:10:00,29.8,28.0,29.94,NE,46,0.0,0.0,93,0.00,,,0.00,Wunderground v.1.15,2013-02-05 14:10:00,
2013-02-05 09:12:00,29.7,27.9,29.95,NE,45,0.0,-999.0,93,0.00,,,0.02,Wunderground v.1.15,2013-02-05 14:12:00,
2013-02-05 09:17:00,30.1,28.3,29.95,N/A,-737280,0.0,-999.0,93,0.00,,,0.02,Wunderground v.1.15,2013-02-05 14:17:00,
2013-02-05 09:20:00,29.9,28.1,29.94,NE,45,0.0,0.0,93,0.00,,,0.00,Wunderground v.1.15,2013-02-05 14:20:00,
2013-02-05 09:22:00,30.1,28.3,29.95,N/A,-737280,0.0,-999.0,93,0.00,,,0.02,Wunderground v.1.15,2013-02-05 14:22:00,
2013-02-05 09:25:00,29.9,28.1,29.94,NE,46,0.0,0.0,93,0.00,,,0.00,Wunderground v.1.15,2013-02-05 14:25:00,
2013-02-05 09:27:00,30.1,28.3,29.95,N/A,-737280,0.0,-999.0,93,0.00,,,0.02,Wunderground v.1.15,2013-02-05 14:27:00,
2013-02-05 09:32:00,30.1,28.3,29.95,N/A,-737280,0.0,-999.0,93,0.00,,,0.02,Wunderground v.1.15,2013-02-05 14:32:00,
2013-02-05 09:35:00,30.2,28.4,29.94,NE,46,0.0,0.0,93,0.00,,,0.00,Wunderground v.1.15,2013-02-05 14:35:00,
2013-02-05 09:37:00,30.1,28.3,29.95,N/A,-737280,0.0,-999.0,93,0.00,,,0.02,Wunderground v.1.15,2013-02-05 14:37:00,
2013-02-05 09:42:00,30.1,28.3,29.95,N/A,-737280,0.0,-999.0,93,0.00,,,0.02,Wunderground v.1.15,2013-02-05 14:42:00,
2013-02-05 09:45:00,30.5,28.5,29.94,NE,46,0.0,0.0,92,0.00,,,0.00,Wunderground v.1.15,2013-02-05 14:45:00,
2013-02-05 09:47:00,30.7,28.7,29.95,NE,45,0.0,-999.0,92,0.00,,,0.02,Wunderground v.1.15,2013-02-05 14:47:00,
2013-02-05 09:50:00,30.5,28.5,29.95,NE,46,0.0,0.0,92,0.00,,,0.00,Wunderground v.1.15,2013-02-05 14:50:00,
2013-02-05 09:52:00,30.7,28.7,29.95,NE,45,0.0,-999.0,92,0.00,,,0.02,Wunderground v.1.15,2013-02-05 14:52:00,
2013-02-05 09:55:00,30.6,28.6,29.95,NE,46,0.0,0.0,92,0.00,,,0.00,Wunderground v.1.15,2013-02-05 14:55:00,
2013-02-05 09:57:00,30.7,28.7,29.95,NE,45,0.0,-999.0,92,0.00,,,0.02,Wunderground v.1.15,2013-02-05 14:57:00,
2013-02-05 10:02:00,30.7,28.7,29.95,NE,45,0.0,-999.0,92,0.00,,,0.02,Wunderground v.1.15,2013-02-05 15:02:00,
2013-02-05 10:05:00,30.9,28.9,29.95,NE,46,0.0,0.0,92,0.00,,,0.00,Wunderground v.1.15,2013-02-05 15:05:00,
2013-02-05 10:07:00,30.7,28.7,29.95,NE,45,0.0,-999.0,92,0.00,,,0.02,Wunderground v.1.15,2013-02-05 15:07:00,
2013-02-05 10:12:00,30.7,28.7,29.95,NE,45,0.0,-999.0,92,0.00,,,0.02,Wunderground v.1.15,2013-02-05 15:12:00,
2013-02-05 10:15:00,31.1,29.0,29.94,NE,46,0.0,0.0,92,0.00,,,0.00,Wunderground v.1.15,2013-02-05 15:15:00,
2013-02-05 10:17:00,31.9,29.6,29.94,NE,45,0.0,-999.0,91,0.00,,,0.02,Wunderground v.1.15,2013-02-05 15:17:00,
2013-02-05 10:20:00,31.4,29.3,29.94,NE,46,0.0,0.0,92,0.00,,,0.00,Wunderground v.1.15,2013-02-05 15:20:00,
2013-02-05 10:22:00,31.9,29.6,29.94,NE,45,0.0,-999.0,91,0.00,,,0.02,Wunderground v.1.15,2013-02-05 15:22:00,
2013-02-05 10:27:00,31.9,29.6,29.94,NE,45,0.0,-999.0,91,0.00,,,0.02,Wunderground v.1.15,2013-02-05 15:27:00,
2013-02-05 10:30:00,31.9,29.6,29.94,NE,47,0.0,0.0,91,0.00,,,0.00,Wunderground v.1.15,2013-02-05 15:30:00,
2013-02-05 10:32:00,31.9,29.6,29.94,NE,45,0.0,-999.0,91,0.00,,,0.02,Wunderground v.1.15,2013-02-05 15:32:00,
2013-02-05 10:35:00,32.1,29.8,29.94,NE,46,0.0,0.0,91,0.00,,,0.00,Wunderground v.1.15,2013-02-05 15:35:00,
2013-02-05 10:37:00,31.9,29.6,29.94,NE,45,0.0,-999.0,91,0.00,,,0.02,Wunderground v.1.15,2013-02-05 15:37:00,
2013-02-05 10:42:00,31.9,29.6,29.94,NE,45,0.0,-999.0,91,0.00,,,0.02,Wunderground v.1.15,2013-02-05 15:42:00,
2013-02-05 10:45:00,33.2,30.3,29.93,NE,46,0.0,0.0,89,0.00,,,0.00,Wunderground v.1.15,2013-02-05 15:45:00,
2013-02-05 10:47:00,34.5,31.3,29.93,NNE,23,0.0,-999.0,88,0.00,,,0.02,Wunderground v.1.15,2013-02-05 15:47:00,
2013-02-05 10:50:00,33.7,30.8,29.93,NNE,16,0.0,2.0,89,0.00,,,0.00,Wunderground v.1.15,2013-02-05 15:50:00,
2013-02-05 10:52:00,34.5,31.3,29.93,NNE,23,0.0,-999.0,88,0.00,,,0.02,Wunderground v.1.15,2013-02-05 15:52:00,
2013-02-05 10:57:00,34.5,31.3,29.93,NNE,23,0.0,-999.0,88,0.00,,,0.02,Wunderground v.1.15,2013-02-05 15:57:00,
2013-02-05 11:00:00,34.5,31.3,29.93,NE,45,1.0,1.0,88,0.00,,,0.00,Wunderground v.1.15,2013-02-05 16:00:00,
2013-02-05 11:02:00,34.5,31.3,29.93,NNE,23,0.0,-999.0,88,0.00,,,0.02,Wunderground v.1.15,2013-02-05 16:02:00,
2013-02-05 11:07:00,34.5,31.3,29.93,NNE,23,0.0,-999.0,88,0.00,,,0.02,Wunderground v.1.15,2013-02-05 16:07:00,
2013-02-05 11:10:00,34.3,31.1,29.93,NNW,344,1.0,1.0,88,0.00,,,0.00,Wunderground v.1.15,2013-02-05 16:10:00,
2013-02-05 11:12:00,34.5,31.3,29.93,NNE,23,0.0,-999.0,88,0.00,,,0.02,Wunderground v.1.15,2013-02-05 16:12:00,
2013-02-05 11:15:00,34.1,31.2,29.93,NNW,344,1.0,1.0,89,0.00,,,0.00,Wunderground v.1.15,2013-02-05 16:15:00,
2013-02-05 11:17:00,33.6,31.0,29.93,NNW,338,1.0,-999.0,90,0.00,,,0.02,Wunderground v.1.15,2013-02-05 16:17:00,
2013-02-05 11:22:00,33.6,31.0,29.93,NNW,338,1.0,-999.0,90,0.00,,,0.02,Wunderground v.1.15,2013-02-05 16:22:00,
2013-02-05 11:25:00,33.8,31.2,29.93,NNE,26,1.0,1.0,90,0.00,,,0.00,Wunderground v.1.15,2013-02-05 16:25:00,
2013-02-05 11:27:00,33.6,31.0,29.93,NNW,338,1.0,-999.0,90,0.00,,,0.02,Wunderground v.1.15,2013-02-05 16:27:00,
2013-02-05 11:30:00,33.6,31.0,29.93,NNE,26,1.0,1.0,90,0.00,,,0.00,Wunderground v.1.15,2013-02-05 16:30:00,
2013-02-05 11:32:00,33.6,31.0,29.93,NNW,338,1.0,-999.0,90,0.00,,,0.02,Wunderground v.1.15,2013-02-05 16:32:00,
2013-02-05 11:37:00,33.6,31.0,29.93,NNW,338,1.0,-999.0,90,0.00,,,0.02,Wunderground v.1.15,2013-02-05 16:37:00,
2013-02-05 11:40:00,33.5,31.2,29.93,NNE,26,0.0,0.0,91,0.00,,,0.00,Wunderground v.1.15,2013-02-05 16:40:00,
2013-02-05 11:42:00,33.6,31.0,29.93,NNW,338,1.0,-999.0,90,0.00,,,0.02,Wunderground v.1.15,2013-02-05 16:42:00,
2013-02-05 11:45:00,33.5,31.2,29.92,NNE,22,0.0,1.0,91,0.00,,,0.00,Wunderground v.1.15,2013-02-05 16:45:00,
2013-02-05 11:47:00,33.3,31.2,29.92,NNE,23,0.0,-999.0,92,0.00,,,0.02,Wunderground v.1.15,2013-02-05 16:47:00,
2013-02-05 11:52:00,33.3,31.2,29.92,NNE,23,0.0,-999.0,92,0.00,,,0.02,Wunderground v.1.15,2013-02-05 16:52:00,
2013-02-05 11:55:00,33.4,31.1,29.92,NNE,22,0.0,1.0,91,0.00,,,0.00,Wunderground v.1.15,2013-02-05 16:55:00,
2013-02-05 11:57:00,33.3,31.2,29.92,NNE,23,0.0,-999.0,92,0.00,,,0.02,Wunderground v.1.15,2013-02-05 16:57:00,
2013-02-05 12:02:00,33.3,31.2,29.92,NNE,23,0.0,-999.0,92,0.00,,,0.02,Wunderground v.1.15,2013-02-05 17:02:00,
2013-02-05 12:05:00,33.3,31.2,29.91,NNE,22,0.0,0.0,92,0.00,,,0.00,Wunderground v.1.15,2013-02-05 17:05:00,
2013-02-05 12:07:00,33.3,31.2,29.92,NNE,23,0.0,-999.0,92,0.00,,,0.02,Wunderground v.1.15,2013-02-05 17:07:00,
2013-02-05 12:10:00,33.3,31.2,29.91,NNE,22,0.0,1.0,92,0.00,,,0.00,Wunderground v.1.15,2013-02-05 17:10:00,
2013-02-05 12:12:00,33.3,31.2,29.92,NNE,23,0.0,-999.0,92,0.00,,,0.02,Wunderground v.1.15,2013-02-05 17:12:00,
2013-02-05 12:15:00,33.3,31.2,29.91,NNE,22,0.0,1.0,92,0.00,,,0.00,Wunderground v.1.15,2013-02-05 17:15:00,
2013-02-05 12:17:00,33.4,31.3,29.90,NNE,23,0.0,-999.0,92,0.00,,,0.02,Wunderground v.1.15,2013-02-05 17:17:00,
2013-02-05 12:22:00,33.4,31.3,29.90,NNE,23,0.0,-999.0,92,0.00,,,0.02,Wunderground v.1.15,2013-02-05 17:22:00,
2013-02-05 12:25:00,33.4,31.3,29.90,NNE,22,0.0,0.0,92,0.00,,,0.00,Wunderground v.1.15,2013-02-05 17:25:00,
2013-02-05 12:27:00,33.4,31.3,29.90,NNE,23,0.0,-999.0,92,0.00,,,0.02,Wunderground v.1.15,2013-02-05 17:27:00,
2013-02-05 12:32:00,33.4,31.3,29.90,NNE,23,0.0,-999.0,92,0.00,,,0.02,Wunderground v.1.15,2013-02-05 17:32:00,
2013-02-05 12:35:00,33.4,31.3,29.90,NNE,21,0.0,0.0,92,0.00,,,0.00,Wunderground v.1.15,2013-02-05 17:35:00,
2013-02-05 12:37:00,33.4,31.3,29.90,NNE,23,0.0,-999.0,92,0.00,,,0.02,Wunderground v.1.15,2013-02-05 17:37:00,
2013-02-05 12:40:00,33.5,31.4,29.90,NNE,21,0.0,0.0,92,0.00,,,0.00,Wunderground v.1.15,2013-02-05 17:40:00,
2013-02-05 12:42:00,33.4,31.3,29.90,NNE,23,0.0,-999.0,92,0.00,,,0.02,Wunderground v.1.15,2013-02-05 17:42:00,
2013-02-05 12:47:00,33.4,31.6,29.89,NNE,23,0.0,-999.0,93,0.00,,,0.02,Wunderground v.1.15,2013-02-05 17:47:00,
2013-02-05 12:50:00,33.4,31.3,29.89,NNE,21,0.0,0.0,92,0.00,,,0.00,Wunderground v.1.15,2013-02-05 17:50:00,
2013-02-05 12:52:00,33.4,31.6,29.89,NNE,23,0.0,-999.0,93,0.00,,,0.02,Wunderground v.1.15,2013-02-05 17:52:00,
2013-02-05 12:55:00,33.4,31.6,29.89,NNE,21,0.0,0.0,93,0.00,,,0.00,Wunderground v.1.15,2013-02-05 17:55:00,
2013-02-05 12:57:00,33.4,31.6,29.89,NNE,23,0.0,-999.0,93,0.00,,,0.02,Wunderground v.1.15,2013-02-05 17:57:00,
2013-02-05 13:00:00,33.4,31.6,29.89,NE,43,0.0,0.0,93,0.00,,,0.00,Wunderground v.1.15,2013-02-05 18:00:00,
2013-02-05 13:02:00,33.4,31.6,29.89,NNE,23,0.0,-999.0,93,0.00,,,0.02,Wunderground v.1.15,2013-02-05 18:02:00,
2013-02-05 13:07:00,33.4,31.6,29.89,NNE,23,0.0,-999.0,93,0.00,,,0.02,Wunderground v.1.15,2013-02-05 18:07:00,
2013-02-05 13:10:00,33.3,31.5,29.89,NE,43,0.0,0.0,93,0.00,,,0.00,Wunderground v.1.15,2013-02-05 18:10:00,
2013-02-05 13:12:00,33.4,31.6,29.89,NNE,23,0.0,-999.0,93,0.00,,,0.02,Wunderground v.1.15,2013-02-05 18:12:00,
2013-02-05 13:17:00,33.6,31.8,29.87,NE,45,0.0,-999.0,93,0.00,,,0.02,Wunderground v.1.15,2013-02-05 18:17:00,
2013-02-05 13:20:00,33.4,31.6,29.88,NE,43,0.0,0.0,93,0.00,,,0.00,Wunderground v.1.15,2013-02-05 18:20:00,
2013-02-05 13:22:00,33.6,31.8,29.87,NE,45,0.0,-999.0,93,0.00,,,0.02,Wunderground v.1.15,2013-02-05 18:22:00,
2013-02-05 13:25:00,33.5,31.7,29.88,NE,42,0.0,0.0,93,0.00,,,0.00,Wunderground v.1.15,2013-02-05 18:25:00,
2013-02-05 13:27:00,33.6,31.8,29.87,NE,45,0.0,-999.0,93,0.00,,,0.02,Wunderground v.1.15,2013-02-05 18:27:00,
2013-02-05 13:32:00,33.6,31.8,29.87,NE,45,0.0,-999.0,93,0.00,,,0.02,Wunderground v.1.15,2013-02-05 18:32:00,
2013-02-05 13:35:00,33.8,32.3,29.87,NE,42,0.0,0.0,94,0.00,,,0.00,Wunderground v.1.15,2013-02-05 18:35:00,
2013-02-05 13:37:00,33.6,31.8,29.87,NE,45,0.0,-999.0,93,0.00,,,0.02,Wunderground v.1.15,2013-02-05 18:37:00,
2013-02-05 13:42:00,33.6,31.8,29.87,NE,45,0.0,-999.0,93,0.00,,,0.02,Wunderground v.1.15,2013-02-05 18:42:00,
2013-02-05 13:45:00,34.4,32.9,29.87,NE,42,0.0,0.0,94,0.00,,,0.00,Wunderground v.1.15,2013-02-05 18:45:00,
2013-02-05 13:47:00,34.7,32.6,29.87,NE,45,0.0,-999.0,92,0.00,,,0.02,Wunderground v.1.15,2013-02-05 18:47:00,
2013-02-05 13:50:00,34.7,32.9,29.87,NE,43,0.0,0.0,93,0.00,,,0.00,Wunderground v.1.15,2013-02-05 18:50:00,
2013-02-05 13:52:00,34.7,32.6,29.87,NE,45,0.0,-999.0,92,0.00,,,0.02,Wunderground v.1.15,2013-02-05 18:52:00,
2013-02-05 13:57:00,34.7,32.6,29.87,NE,45,0.0,-999.0,92,0.00,,,0.02,Wunderground v.1.15,2013-02-05 18:57:00,
2013-02-05 14:00:00,34.7,32.6,29.87,NE,39,0.0,0.0,92,0.00,,,0.00,Wunderground v.1.15,2013-02-05 19:00:00,
2013-02-05 14:02:00,34.7,32.6,29.87,NE,45,0.0,-999.0,92,0.00,,,0.02,Wunderground v.1.15,2013-02-05 19:02:00,
2013-02-05 14:07:00,34.7,32.6,29.87,NE,45,0.0,-999.0,92,0.00,,,0.02,Wunderground v.1.15,2013-02-05 19:07:00,
2013-02-05 14:10:00,34.7,32.6,29.87,NE,38,0.0,0.0,92,0.00,,,0.00,Wunderground v.1.15,2013-02-05 19:10:00,
2013-02-05 14:12:00,34.7,32.6,29.87,NE,45,0.0,-999.0,92,0.00,,,0.02,Wunderground v.1.15,2013-02-05 19:12:00,
2013-02-05 14:15:00,34.8,33.0,29.87,NE,38,0.0,0.0,93,0.00,,,0.00,Wunderground v.1.15,2013-02-05 19:15:00,
2013-02-05 14:17:00,34.9,33.1,29.87,ENE,68,0.0,-999.0,93,0.00,,,0.02,Wunderground v.1.15,2013-02-05 19:17:00,
2013-02-05 14:22:00,34.9,33.1,29.87,ENE,68,0.0,-999.0,93,0.00,,,0.02,Wunderground v.1.15,2013-02-05 19:22:00,
2013-02-05 14:25:00,34.7,32.9,29.87,ENE,69,0.0,0.0,93,0.00,,,0.00,Wunderground v.1.15,2013-02-05 19:25:00,
2013-02-05 14:27:00,34.9,33.1,29.87,ENE,68,0.0,-999.0,93,0.00,,,0.02,Wunderground v.1.15,2013-02-05 19:27:00,
2013-02-05 14:30:00,34.8,33.0,29.87,ENE,69,0.0,0.0,93,0.00,,,0.00,Wunderground v.1.15,2013-02-05 19:30:00,
2013-02-05 14:32:00,34.9,33.1,29.87,ENE,68,0.0,-999.0,93,0.00,,,0.02,Wunderground v.1.15,2013-02-05 19:32:00,
2013-02-05 14:37:00,34.9,33.1,29.87,ENE,68,0.0,-999.0,93,0.00,,,0.02,Wunderground v.1.15,2013-02-05 19:37:00,
2013-02-05 14:40:00,35.2,33.6,29.86,ENE,70,0.0,0.0,94,0.00,,,0.00,Wunderground v.1.15,2013-02-05 19:40:00,
2013-02-05 14:42:00,34.9,33.1,29.87,ENE,68,0.0,-999.0,93,0.00,,,0.02,Wunderground v.1.15,2013-02-05 19:42:00,
2013-02-05 14:45:00,35.2,33.4,29.86,ENE,70,0.0,0.0,93,0.00,,,0.00,Wunderground v.1.15,2013-02-05 19:45:00,
2013-02-05 14:47:00,35.4,33.6,29.86,ENE,68,0.0,-999.0,93,0.00,,,0.02,Wunderground v.1.15,2013-02-05 19:47:00,
2013-02-05 14:52:00,35.4,33.6,29.86,ENE,68,0.0,-999.0,93,0.00,,,0.02,Wunderground v.1.15,2013-02-05 19:52:00,
2013-02-05 14:55:00,35.4,33.6,29.86,ENE,70,0.0,0.0,93,0.00,,,0.00,Wunderground v.1.15,2013-02-05 19:55:00,
2013-02-05 14:57:00,35.4,33.6,29.86,ENE,68,0.0,-999.0,93,0.00,,,0.02,Wunderground v.1.15,2013-02-05 19:57:00,
2013-02-05 15:00:00,35.4,33.6,29.86,ENE,69,0.0,0.0,93,0.00,,,0.00,Wunderground v.1.15,2013-02-05 20:00:00,
2013-02-05 15:02:00,35.4,33.6,29.86,ENE,68,0.0,-999.0,93,0.00,,,0.02,Wunderground v.1.15,2013-02-05 20:02:00,
2013-02-05 15:07:00,35.4,33.6,29.86,ENE,68,0.0,-999.0,93,0.00,,,0.02,Wunderground v.1.15,2013-02-05 20:07:00,
2013-02-05 15:10:00,35.5,33.7,29.87,ENE,70,0.0,0.0,93,0.00,,,0.00,Wunderground v.1.15,2013-02-05 20:10:00,
2013-02-05 15:12:00,35.4,33.6,29.86,ENE,68,0.0,-999.0,93,0.00,,,0.02,Wunderground v.1.15,2013-02-05 20:12:00,
2013-02-05 15:15:00,35.5,33.7,29.87,ENE,69,0.0,0.0,93,0.00,,,0.00,Wunderground v.1.15,2013-02-05 20:15:00,
2013-02-05 15:17:00,35.9,34.1,29.87,ENE,68,0.0,-999.0,93,0.00,,,0.02,Wunderground v.1.15,2013-02-05 20:17:00,
2013-02-05 15:20:00,35.7,33.9,29.87,ENE,68,0.0,0.0,93,0.00,,,0.00,Wunderground v.1.15,2013-02-05 20:20:00,
2013-02-05 15:22:00,35.9,34.1,29.87,ENE,68,0.0,-999.0,93,0.00,,,0.02,Wunderground v.1.15,2013-02-05 20:22:00,
2013-02-05 15:27:00,35.9,34.1,29.87,ENE,68,0.0,-999.0,93,0.00,,,0.02,Wunderground v.1.15,2013-02-05 20:27:00,
2013-02-05 15:30:00,35.9,34.1,29.87,ENE,70,0.0,0.0,93,0.00,,,0.00,Wunderground v.1.15,2013-02-05 20:30:00,
2013-02-05 15:32:00,35.9,34.1,29.87,ENE,68,0.0,-999.0,93,0.00,,,0.02,Wunderground v.1.15,2013-02-05 20:32:00,
2013-02-05 15:35:00,36.0,34.2,29.87,ENE,70,0.0,1.0,93,0.00,,,0.01,Wunderground v.1.15,2013-02-05 20:35:00,
2013-02-05 15:37:00,35.9,34.1,29.87,ENE,68,0.0,-999.0,93,0.00,,,0.02,Wunderground v.1.15,2013-02-05 20:37:00,
2013-02-05 15:40:00,35.9,34.1,29.87,ENE,69,0.0,0.0,93,0.00,,,0.01,Wunderground v.1.15,2013-02-05 20:40:00,
2013-02-05 15:42:00,35.9,34.1,29.87,ENE,68,0.0,-999.0,93,0.00,,,0.02,Wunderground v.1.15,2013-02-05 20:42:00,
2013-02-05 15:47:00,36.0,34.2,29.87,ENE,68,0.0,-999.0,93,0.01,,,0.02,Wunderground v.1.15,2013-02-05 20:47:00,
2013-02-05 15:50:00,35.9,34.1,29.88,ENE,68,0.0,0.0,93,0.00,,,0.01,Wunderground v.1.15,2013-02-05 20:50:00,
2013-02-05 15:52:00,36.0,34.2,29.87,ENE,68,0.0,-999.0,93,0.01,,,0.02,Wunderground v.1.15,2013-02-05 20:52:00,
2013-02-05 15:57:00,36.0,34.2,29.87,ENE,68,0.0,-999.0,93,0.01,,,0.02,Wunderground v.1.15,2013-02-05 20:57:00,
2013-02-05 16:00:00,36.0,34.2,29.87,ENE,74,0.0,0.0,93,0.00,,,0.01,Wunderground v.1.15,2013-02-05 21:00:00,
2013-02-05 16:02:00,36.0,34.2,29.87,ENE,68,0.0,-999.0,93,0.01,,,0.02,Wunderground v.1.15,2013-02-05 21:02:00,
2013-02-05 16:07:00,36.0,34.2,29.87,ENE,68,0.0,-999.0,93,0.01,,,0.02,Wunderground v.1.15,2013-02-05 21:07:00,
2013-02-05 16:10:00,36.1,34.3,29.87,ENE,77,0.0,0.0,93,0.00,,,0.01,Wunderground v.1.15,2013-02-05 21:10:00,
2013-02-05 16:12:00,36.0,34.2,29.87,ENE,68,0.0,-999.0,93,0.01,,,0.02,Wunderground v.1.15,2013-02-05 21:12:00,
2013-02-05 16:15:00,36.1,34.3,29.87,ENE,76,0.0,0.0,93,0.00,,,0.01,Wunderground v.1.15,2013-02-05 21:15:00,
2013-02-05 16:17:00,36.1,34.3,29.88,ENE,68,0.0,-999.0,93,0.02,,,0.02,Wunderground v.1.15,2013-02-05 21:17:00,
2013-02-05 16:20:00,36.1,34.3,29.88,ENE,77,0.0,0.0,93,0.00,,,0.02,Wunderground v.1.15,2013-02-05 21:20:00,
2013-02-05 16:22:00,36.1,34.3,29.88,ENE,68,0.0,-999.0,93,0.02,,,0.02,Wunderground v.1.15,2013-02-05 21:22:00,
2013-02-05 16:27:00,36.1,34.3,29.88,ENE,68,0.0,-999.0,93,0.02,,,0.02,Wunderground v.1.15,2013-02-05 21:27:00,
2013-02-05 16:30:00,36.1,34.3,29.88,ENE,73,0.0,0.0,93,0.00,,,0.02,Wunderground v.1.15,2013-02-05 21:30:00,
2013-02-05 16:32:00,36.1,34.3,29.88,ENE,68,0.0,-999.0,93,0.02,,,0.02,Wunderground v.1.15,2013-02-05 21:32:00,
2013-02-05 16:37:00,36.1,34.3,29.88,ENE,68,0.0,-999.0,93,0.02,,,0.02,Wunderground v.1.15,2013-02-05 21:37:00,
2013-02-05 16:40:00,36.1,34.5,29.88,ENE,73,0.0,0.0,94,0.00,,,0.02,Wunderground v.1.15,2013-02-05 21:40:00,
2013-02-05 16:42:00,36.1,34.3,29.88,ENE,68,0.0,-999.0,93,0.02,,,0.02,Wunderground v.1.15,2013-02-05 21:42:00,
2013-02-05 16:45:00,36.1,34.5,29.88,ENE,73,0.0,0.0,94,0.00,,,0.02,Wunderground v.1.15,2013-02-05 21:45:00,
2013-02-05 16:47:00,35.8,34.2,29.88,ENE,68,0.0,-999.0,94,0.01,,,0.02,Wunderground v.1.15,2013-02-05 21:47:00,
2013-02-05 16:52:00,35.8,34.2,29.88,ENE,68,0.0,-999.0,94,0.01,,,0.02,Wunderground v.1.15,2013-02-05 21:52:00,
2013-02-05 16:55:00,35.9,34.3,29.88,ENE,74,0.0,0.0,94,0.00,,,0.02,Wunderground v.1.15,2013-02-05 21:55:00,
2013-02-05 16:57:00,35.8,34.2,29.88,ENE,68,0.0,-999.0,94,0.01,,,0.02,Wunderground v.1.15,2013-02-05 21:57:00,
2013-02-05 17:00:00,35.8,34.2,29.88,ENE,73,0.0,0.0,94,0.00,,,0.02,Wunderground v.1.15,2013-02-05 22:00:00,
2013-02-05 17:02:00,35.8,34.2,29.88,ENE,68,0.0,-999.0,94,0.01,,,0.02,Wunderground v.1.15,2013-02-05 22:02:00,
2013-02-05 17:07:00,35.8,34.2,29.88,ENE,68,0.0,-999.0,94,0.01,,,0.02,Wunderground v.1.15,2013-02-05 22:07:00,
2013-02-05 17:10:00,35.6,34.0,29.88,ENE,73,0.0,0.0,94,0.00,,,0.02,Wunderground v.1.15,2013-02-05 22:10:00,
2013-02-05 17:12:00,35.8,34.2,29.88,ENE,68,0.0,-999.0,94,0.01,,,0.02,Wunderground v.1.15,2013-02-05 22:12:00,
2013-02-05 17:17:00,35.0,33.4,29.88,N/A,-737280,0.0,-999.0,94,0.00,,,0.02,Wunderground v.1.15,2013-02-05 22:17:00,
2013-02-05 17:20:00,35.4,33.8,29.88,ENE,73,0.0,0.0,94,0.00,,,0.02,Wunderground v.1.15,2013-02-05 22:20:00,
2013-02-05 17:22:00,35.0,33.4,29.88,N/A,-737280,0.0,-999.0,94,0.00,,,0.02,Wunderground v.1.15,2013-02-05 22:22:00,
2013-02-05 17:25:00,35.2,33.6,29.88,ENE,73,0.0,0.0,94,0.00,,,0.02,Wunderground v.1.15,2013-02-05 22:25:00,
2013-02-05 17:27:00,35.0,33.4,29.88,N/A,-737280,0.0,-999.0,94,0.00,,,0.02,Wunderground v.1.15,2013-02-05 22:27:00,
2013-02-05 17:30:00,35.0,33.4,29.88,ENE,73,0.0,0.0,94,0.00,,,0.02,Wunderground v.1.15,2013-02-05 22:30:00,
2013-02-05 17:32:00,35.0,33.4,29.88,N/A,-737280,0.0,-999.0,94,0.00,,,0.02,Wunderground v.1.15,2013-02-05 22:32:00,
2013-02-05 17:37:00,35.0,33.4,29.88,N/A,-737280,0.0,-999.0,94,0.00,,,0.02,Wunderground v.1.15,2013-02-05 22:37:00,
2013-02-05 17:40:00,34.5,33.0,29.87,ENE,73,0.0,0.0,94,0.00,,,0.02,Wunderground v.1.15,2013-02-05 22:40:00,
2013-02-05 17:42:00,35.0,33.4,29.88,N/A,-737280,0.0,-999.0,94,0.00,,,0.02,Wunderground v.1.15,2013-02-05 22:42:00,
2013-02-05 17:45:00,34.1,32.6,29.88,ENE,74,0.0,0.0,94,0.00,,,0.02,Wunderground v.1.15,2013-02-05 22:45:00,
2013-02-05 17:47:00,33.5,32.2,29.88,ENE,68,0.0,-999.0,95,0.00,,,0.02,Wunderground v.1.15,2013-02-05 22:47:00,
2013-02-05 17:52:00,33.5,32.2,29.88,ENE,68,0.0,-999.0,95,0.00,,,0.02,Wunderground v.1.15,2013-02-05 22:52:00,
2013-02-05 17:55:00,33.5,32.0,29.88,ENE,74,0.0,1.0,94,0.00,,,0.02,Wunderground v.1.15,2013-02-05 22:55:00,
2013-02-05 17:57:00,33.5,32.2,29.88,ENE,68,0.0,-999.0,95,0.00,,,0.02,Wunderground v.1.15,2013-02-05 22:57:00,
2013-02-05 18:00:00,33.5,32.2,29.88,ENE,75,0.0,0.0,95,0.00,,,0.02,Wunderground v.1.15,2013-02-05 23:00:00,
2013-02-05 18:02:00,33.5,32.2,29.88,ENE,68,0.0,-999.0,95,0.00,,,0.02,Wunderground v.1.15,2013-02-05 23:02:00,
2013-02-05 18:07:00,33.5,32.2,29.88,ENE,68,0.0,-999.0,95,0.00,,,0.02,Wunderground v.1.15,2013-02-05 23:07:00,
2013-02-05 18:10:00,33.2,31.9,29.89,ENE,75,0.0,0.0,95,0.00,,,0.02,Wunderground v.1.15,2013-02-05 23:10:00,
2013-02-05 18:12:00,33.5,32.2,29.88,ENE,68,0.0,-999.0,95,0.00,,,0.02,Wunderground v.1.15,2013-02-05 23:12:00,
2013-02-05 18:15:00,33.0,31.7,29.89,ENE,75,0.0,1.0,95,0.00,,,0.02,Wunderground v.1.15,2013-02-05 23:15:00,
2013-02-05 18:17:00,32.7,31.4,29.89,ENE,68,0.0,-999.0,95,0.00,,,0.02,Wunderground v.1.15,2013-02-05 23:17:00,
2013-02-05 18:22:00,32.7,31.4,29.89,ENE,68,0.0,-999.0,95,0.00,,,0.02,Wunderground v.1.15,2013-02-05 23:22:00,
2013-02-05 18:25:00,32.8,31.5,29.89,ENE,75,0.0,0.0,95,0.00,,,0.02,Wunderground v.1.15,2013-02-05 23:25:00,
2013-02-05 18:27:00,32.7,31.4,29.89,ENE,68,0.0,-999.0,95,0.00,,,0.02,Wunderground v.1.15,2013-02-05 23:27:00,
2013-02-05 18:30:00,32.7,31.4,29.89,ENE,75,0.0,0.0,95,0.00,,,0.02,Wunderground v.1.15,2013-02-05 23:30:00,
2013-02-05 18:32:00,32.7,31.4,29.89,ENE,68,0.0,-999.0,95,0.00,,,0.02,Wunderground v.1.15,2013-02-05 23:32:00,
2013-02-05 18:37:00,32.7,31.4,29.89,ENE,68,0.0,-999.0,95,0.00,,,0.02,Wunderground v.1.15,2013-02-05 23:37:00,
2013-02-05 18:40:00,32.4,31.1,29.89,ENE,75,0.0,0.0,95,0.00,,,0.02,Wunderground v.1.15,2013-02-05 23:40:00,
2013-02-05 18:42:00,32.7,31.4,29.89,ENE,68,0.0,-999.0,95,0.00,,,0.02,Wunderground v.1.15,2013-02-05 23:42:00,
2013-02-05 18:45:00,32.2,30.9,29.90,ENE,75,0.0,0.0,95,0.00,,,0.02,Wunderground v.1.15,2013-02-05 23:45:00,
2013-02-05 18:47:00,31.8,30.5,29.90,ENE,68,0.0,-999.0,95,0.00,,,0.02,Wunderground v.1.15,2013-02-05 23:47:00,
2013-02-05 18:52:00,31.8,30.5,29.90,ENE,68,0.0,-999.0,95,0.00,,,0.02,Wunderground v.1.15,2013-02-05 23:52:00,
2013-02-05 18:55:00,32.0,30.7,29.90,ENE,75,0.0,0.0,95,0.00,,,0.02,Wunderground v.1.15,2013-02-05 23:55:00,
2013-02-05 18:57:00,31.8,30.5,29.90,ENE,68,0.0,-999.0,95,0.00,,,0.02,Wunderground v.1.15,2013-02-05 23:57:00,
2013-02-05 19:00:00,31.8,30.5,29.90,NNE,23,0.0,0.0,95,0.00,,,0.02,Wunderground v.1.15,2013-02-06 00:00:00,
2013-02-05 19:02:00,31.8,30.5,29.90,ENE,68,0.0,-999.0,95,0.00,,,0.02,Wunderground v.1.15,2013-02-06 00:02:00,
2013-02-05 19:07:00,31.8,30.5,29.90,ENE,68,0.0,-999.0,95,0.00,,,0.02,Wunderground v.1.15,2013-02-06 00:07:00,
2013-02-05 19:10:00,31.5,30.2,29.91,NNE,23,0.0,0.0,95,0.00,,,0.02,Wunderground v.1.15,2013-02-06 00:10:00,
2013-02-05 19:12:00,31.8,30.5,29.90,ENE,68,0.0,-999.0,95,0.00,,,0.02,Wunderground v.1.15,2013-02-06 00:12:00,
2013-02-05 19:17:00,31.2,30.2,29.90,ENE,68,0.0,-999.0,96,0.00,,,0.02,Wunderground v.1.15,2013-02-06 00:17:00,
2013-02-05 19:20:00,31.4,30.4,29.90,ENE,57,0.0,0.0,96,0.00,,,0.02,Wunderground v.1.15,2013-02-06 00:20:00,
2013-02-05 19:22:00,31.2,30.2,29.90,ENE,68,0.0,-999.0,96,0.00,,,0.02,Wunderground v.1.15,2013-02-06 00:22:00,
2013-02-05 19:25:00,31.3,30.0,29.91,NE,56,0.0,0.0,95,0.00,,,0.02,Wunderground v.1.15,2013-02-06 00:25:00,
2013-02-05 19:27:00,31.2,30.2,29.90,ENE,68,0.0,-999.0,96,0.00,,,0.02,Wunderground v.1.15,2013-02-06 00:27:00,
2013-02-05 19:32:00,31.2,30.2,29.90,ENE,68,0.0,-999.0,96,0.00,,,0.02,Wunderground v.1.15,2013-02-06 00:32:00,
2013-02-05 19:35:00,31.1,29.8,29.91,ENE,57,0.0,0.0,95,0.00,,,0.02,Wunderground v.1.15,2013-02-06 00:35:00,
2013-02-05 19:37:00,31.2,30.2,29.90,ENE,68,0.0,-999.0,96,0.00,,,0.02,Wunderground v.1.15,2013-02-06 00:37:00,
2013-02-05 19:40:00,30.9,29.6,29.91,ENE,57,0.0,0.0,95,0.00,,,0.02,Wunderground v.1.15,2013-02-06 00:40:00,
2013-02-05 19:42:00,31.2,30.2,29.90,ENE,68,0.0,-999.0,96,0.00,,,0.02,Wunderground v.1.15,2013-02-06 00:42:00,
2013-02-05 19:47:00,30.8,29.8,29.91,N/A,-737280,0.0,-999.0,96,0.00,,,0.02,Wunderground v.1.15,2013-02-06 00:47:00,
2013-02-05 19:50:00,30.8,29.8,29.91,NE,56,0.0,0.0,96,0.00,,,0.02,Wunderground v.1.15,2013-02-06 00:50:00,
2013-02-05 19:52:00,30.8,29.8,29.91,N/A,-737280,0.0,-999.0,96,0.00,,,0.02,Wunderground v.1.15,2013-02-06 00:52:00,
2013-02-05 19:57:00,30.8,29.8,29.91,N/A,-737280,0.0,-999.0,96,0.00,,,0.02,Wunderground v.1.15,2013-02-06 00:57:00,
2013-02-05 20:00:00,30.8,29.8,29.91,ENE,57,0.0,0.0,96,0.00,,,0.02,Wunderground v.1.15,2013-02-06 01:00:00,
2013-02-05 20:02:00,30.8,29.8,29.91,N/A,-737280,0.0,-999.0,96,0.00,,,0.02,Wunderground v.1.15,2013-02-06 01:02:00,
2013-02-05 20:07:00,30.8,29.8,29.91,N/A,-737280,0.0,-999.0,96,0.00,,,0.02,Wunderground v.1.15,2013-02-06 01:07:00,
2013-02-05 20:10:00,30.7,29.7,29.91,ENE,57,0.0,0.0,96,0.00,,,0.02,Wunderground v.1.15,2013-02-06 01:10:00,
2013-02-05 20:12:00,30.8,29.8,29.91,N/A,-737280,0.0,-999.0,96,0.00,,,0.02,Wunderground v.1.15,2013-02-06 01:12:00,
2013-02-05 20:15:00,30.6,29.6,29.92,NE,56,0.0,0.0,96,0.00,,,0.02,Wunderground v.1.15,2013-02-06 01:15:00,
2013-02-05 20:17:00,30.5,29.5,29.92,N/A,-737280,0.0,-999.0,96,0.00,,,0.02,Wunderground v.1.15,2013-02-06 01:17:00,
2013-02-05 20:22:00,30.5,29.5,29.92,N/A,-737280,0.0,-999.0,96,0.00,,,0.02,Wunderground v.1.15,2013-02-06 01:22:00,
2013-02-05 20:25:00,30.5,29.5,29.92,ENE,57,0.0,0.0,96,0.00,,,0.02,Wunderground v.1.15,2013-02-06 01:25:00,
2013-02-05 20:27:00,30.5,29.5,29.92,N/A,-737280,0.0,-999.0,96,0.00,,,0.02,Wunderground v.1.15,2013-02-06 01:27:00,
2013-02-05 20:32:00,30.5,29.5,29.92,N/A,-737280,0.0,-999.0,96,0.00,,,0.02,Wunderground v.1.15,2013-02-06 01:32:00,
2013-02-05 20:35:00,30.5,29.5,29.93,ENE,57,0.0,0.0,96,0.00,,,0.02,Wunderground v.1.15,2013-02-06 01:35:00,
2013-02-05 20:37:00,30.5,29.5,29.92,N/A,-737280,0.0,-999.0,96,0.00,,,0.02,Wunderground v.1.15,2013-02-06 01:37:00,
2013-02-05 20:40:00,30.6,29.6,29.93,NE,56,0.0,0.0,96,0.00,,,0.02,Wunderground v.1.15,2013-02-06 01:40:00,
2013-02-05 20:42:00,30.5,29.5,29.92,N/A,-737280,0.0,-999.0,96,0.00,,,0.02,Wunderground v.1.15,2013-02-06 01:42:00,
2013-02-05 20:47:00,30.7,29.7,29.94,N/A,-737280,0.0,-999.0,96,0.00,,,0.02,Wunderground v.1.15,2013-02-06 01:47:00,
2013-02-05 20:50:00,30.7,29.7,29.93,NE,56,0.0,0.0,96,0.00,,,0.02,Wunderground v.1.15,2013-02-06 01:50:00,
2013-02-05 20:52:00,30.7,29.7,29.94,N/A,-737280,0.0,-999.0,96,0.00,,,0.02,Wunderground v.1.15,2013-02-06 01:52:00,
2013-02-05 20:57:00,30.7,29.7,29.94,N/A,-737280,0.0,-999.0,96,0.00,,,0.02,Wunderground v.1.15,2013-02-06 01:57:00,
2013-02-05 21:00:00,30.7,29.7,29.93,ENE,57,0.0,0.0,96,0.00,,,0.02,Wunderground v.1.15,2013-02-06 02:00:00,
2013-02-05 21:02:00,30.7,29.7,29.94,N/A,-737280,0.0,-999.0,96,0.00,,,0.02,Wunderground v.1.15,2013-02-06 02:02:00,
2013-02-05 21:07:00,30.7,29.7,29.94,N/A,-737280,0.0,-999.0,96,0.00,,,0.02,Wunderground v.1.15,2013-02-06 02:07:00,
2013-02-05 21:10:00,30.8,29.8,29.94,ENE,58,0.0,0.0,96,0.00,,,0.02,Wunderground v.1.15,2013-02-06 02:10:00,
2013-02-05 21:12:00,30.7,29.7,29.94,N/A,-737280,0.0,-999.0,96,0.00,,,0.02,Wunderground v.1.15,2013-02-06 02:12:00,
2013-02-05 21:15:00,30.8,29.8,29.94,ENE,57,0.0,0.0,96,0.00,,,0.02,Wunderground v.1.15,2013-02-06 02:15:00,
2013-02-05 21:17:00,30.9,29.9,29.94,ENE,68,0.0,-999.0,96,0.00,,,0.02,Wunderground v.1.15,2013-02-06 02:17:00,
2013-02-05 21:20:00,30.8,29.8,29.94,NE,56,0.0,0.0,96,0.00,,,0.02,Wunderground v.1.15,2013-02-06 02:20:00,
2013-02-05 21:22:00,30.9,29.9,29.94,ENE,68,0.0,-999.0,96,0.00,,,0.02,Wunderground v.1.15,2013-02-06 02:22:00,
2013-02-05 21:27:00,30.9,29.9,29.94,ENE,68,0.0,-999.0,96,0.00,,,0.02,Wunderground v.1.15,2013-02-06 02:27:00,
2013-02-05 21:30:00,30.9,29.9,29.94,ENE,57,0.0,1.0,96,0.00,,,0.02,Wunderground v.1.15,2013-02-06 02:30:00,
2013-02-05 21:32:00,30.9,29.9,29.94,ENE,68,0.0,-999.0,96,0.00,,,0.02,Wunderground v.1.15,2013-02-06 02:32:00,
2013-02-05 21:37:00,30.9,29.9,29.94,ENE,68,0.0,-999.0,96,0.00,,,0.02,Wunderground v.1.15,2013-02-06 02:37:00,
2013-02-05 21:40:00,31.0,30.0,29.95,ENE,58,0.0,0.0,96,0.00,,,0.02,Wunderground v.1.15,2013-02-06 02:40:00,
2013-02-05 21:42:00,30.9,29.9,29.94,ENE,68,0.0,-999.0,96,0.00,,,0.02,Wunderground v.1.15,2013-02-06 02:42:00,
2013-02-05 21:47:00,31.2,30.2,29.96,ENE,68,0.0,-999.0,96,0.00,,,0.02,Wunderground v.1.15,2013-02-06 02:47:00,
2013-02-05 21:50:00,31.1,30.1,29.96,ENE,58,0.0,0.0,96,0.00,,,0.02,Wunderground v.1.15,2013-02-06 02:50:00,
2013-02-05 21:52:00,31.2,30.2,29.96,ENE,68,0.0,-999.0,96,0.00,,,0.02,Wunderground v.1.15,2013-02-06 02:52:00,
2013-02-05 21:55:00,31.2,30.2,29.95,ENE,58,0.0,0.0,96,0.00,,,0.02,Wunderground v.1.15,2013-02-06 02:55:00,
2013-02-05 21:57:00,31.2,30.2,29.96,ENE,68,0.0,-999.0,96,0.00,,,0.02,Wunderground v.1.15,2013-02-06 02:57:00,
2013-02-05 22:02:00,31.2,30.2,29.96,ENE,68,0.0,-999.0,96,0.00,,,0.02,Wunderground v.1.15,2013-02-06 03:02:00,
2013-02-05 22:05:00,31.3,30.3,29.96,ENE,62,0.0,0.0,96,0.00,,,0.02,Wunderground v.1.15,2013-02-06 03:05:00,
2013-02-05 22:07:00,31.2,30.2,29.96,ENE,68,0.0,-999.0,96,0.00,,,0.02,Wunderground v.1.15,2013-02-06 03:07:00,
2013-02-05 22:10:00,31.3,30.3,29.96,ENE,63,0.0,0.0,96,0.00,,,0.02,Wunderground v.1.15,2013-02-06 03:10:00,
2013-02-05 22:12:00,31.2,30.2,29.96,ENE,68,0.0,-999.0,96,0.00,,,0.02,Wunderground v.1.15,2013-02-06 03:12:00,
2013-02-05 22:17:00,31.3,30.3,29.97,ENE,68,0.0,-999.0,96,0.00,,,0.02,Wunderground v.1.15,2013-02-06 03:17:00,
2013-02-05 22:20:00,31.3,30.3,29.97,ENE,62,0.0,0.0,96,0.00,,,0.02,Wunderground v.1.15,2013-02-06 03:20:00,
2013-02-05 22:22:00,31.3,30.3,29.97,ENE,68,0.0,-999.0,96,0.00,,,0.02,Wunderground v.1.15,2013-02-06 03:22:00,
2013-02-05 22:27:00,31.3,30.3,29.97,ENE,68,0.0,-999.0,96,0.00,,,0.02,Wunderground v.1.15,2013-02-06 03:27:00,
2013-02-05 22:30:00,31.3,30.3,29.97,ENE,63,0.0,0.0,96,0.00,,,0.02,Wunderground v.1.15,2013-02-06 03:30:00,
2013-02-05 22:32:00,31.3,30.3,29.97,ENE,68,0.0,-999.0,96,0.00,,,0.02,Wunderground v.1.15,2013-02-06 03:32:00,
2013-02-05 22:35:00,31.3,30.3,29.97,ENE,62,0.0,0.0,96,0.00,,,0.02,Wunderground v.1.15,2013-02-06 03:35:00,
2013-02-05 22:37:00,31.3,30.3,29.97,ENE,68,0.0,-999.0,96,0.00,,,0.02,Wunderground v.1.15,2013-02-06 03:37:00,
2013-02-05 22:42:00,31.3,30.3,29.97,ENE,68,0.0,-999.0,96,0.00,,,0.02,Wunderground v.1.15,2013-02-06 03:42:00,
2013-02-05 22:45:00,31.3,30.3,29.96,ENE,62,0.0,0.0,96,0.00,,,0.02,Wunderground v.1.15,2013-02-06 03:45:00,
2013-02-05 22:47:00,31.2,30.2,29.96,ENE,68,0.0,-999.0,96,0.00,,,0.02,Wunderground v.1.15,2013-02-06 03:47:00,
2013-02-05 22:50:00,31.3,30.3,29.96,ENE,62,0.0,0.0,96,0.00,,,0.02,Wunderground v.1.15,2013-02-06 03:50:00,
2013-02-05 22:52:00,31.2,30.2,29.96,ENE,68,0.0,-999.0,96,0.00,,,0.02,Wunderground v.1.15,2013-02-06 03:52:00,
2013-02-05 22:57:00,31.2,30.2,29.96,ENE,68,0.0,-999.0,96,0.00,,,0.02,Wunderground v.1.15,2013-02-06 03:57:00,
2013-02-05 23:00:00,31.2,30.2,29.96,ENE,63,0.0,0.0,96,0.00,,,0.02,Wunderground v.1.15,2013-02-06 04:00:00,
2013-02-05 23:02:00,31.2,30.2,29.96,ENE,68,0.0,-999.0,96,0.00,,,0.02,Wunderground v.1.15,2013-02-06 04:02:00,
2013-02-05 23:07:00,31.2,30.2,29.96,ENE,68,0.0,-999.0,96,0.00,,,0.02,Wunderground v.1.15,2013-02-06 04:07:00,
2013-02-05 23:10:00,31.2,30.2,29.96,ENE,63,0.0,0.0,96,0.00,,,0.02,Wunderground v.1.15,2013-02-06 04:10:00,
2013-02-05 23:12:00,31.2,30.2,29.96,ENE,68,0.0,-999.0,96,0.00,,,0.02,Wunderground v.1.15,2013-02-06 04:12:00,
2013-02-05 23:15:00,31.1,30.1,29.96,ENE,63,0.0,0.0,96,0.00,,,0.02,Wunderground v.1.15,2013-02-06 04:15:00,
2013-02-05 23:17:00,31.2,30.2,29.96,ENE,68,0.0,-999.0,96,0.00,,,0.02,Wunderground v.1.15,2013-02-06 04:17:00,
2013-02-05 23:20:00,31.2,30.2,29.96,ENE,62,0.0,0.0,96,0.00,,,0.02,Wunderground v.1.15,2013-02-06 04:20:00,
2013-02-05 23:22:00,31.2,30.2,29.96,ENE,68,0.0,-999.0,96,0.00,,,0.02,Wunderground v.1.15,2013-02-06 04:22:00,
2013-02-05 23:27:00,31.2,30.2,29.96,ENE,68,0.0,-999.0,96,0.00,,,0.02,Wunderground v.1.15,2013-02-06 04:27:00,
2013-02-05 23:30:00,31.2,30.2,29.96,ENE,63,0.0,0.0,96,0.00,,,0.02,Wunderground v.1.15,2013-02-06 04:30:00,
2013-02-05 23:32:00,31.2,30.2,29.96,ENE,68,0.0,-999.0,96,0.00,,,0.02,Wunderground v.1.15,2013-02-06 04:32:00,
2013-02-05 23:37:00,31.2,30.2,29.96,ENE,68,0.0,-999.0,96,0.00,,,0.02,Wunderground v.1.15,2013-02-06 04:37:00,
2013-02-05 23:42:00,31.2,30.2,29.96,ENE,68,0.0,-999.0,96,0.00,,,0.02,Wunderground v.1.15,2013-02-06 04:42:00,
2013-02-05 23:47:00,31.4,30.4,29.96,ESE,113,0.0,-999.0,96,0.00,,,0.02,Wunderground v.1.15,2013-02-06 04:47:00,
2013-02-05 23:52:00,31.4,30.4,29.96,ESE,113,0.0,-999.0,96,0.00,,,0.02,Wunderground v.1.15,2013-02-06 04:52:00,
2013-02-05 23:57:00,31.4,30.4,29.96,ESE,113,0.0,-999.0,96,0.00,,,0.02,Wunderground v.1.15,2013-02-06 04:57:00,